Suches, Georgia
Current Conditions -  °F | °C
As of 7:53 AM on Tuesday 21 Oct 2014 (Local Time) from KGVL Reporting Station
Clear Clear  
Wind Chill: 51°   Ceiling: Unl
Heat Index: 51°   Visibility: 10mi
Dew Point: 49°   Wind: 6mph
Humidity: 92%   Direction: 270°W
Pressure: 30.02"   Gusts: NA
Location:  34.72°N, 84.05°W
Report Text: KGVL 211153Z AUTO 27005KT 10SM CLR 11/09 A3002 RMK AO2 SLP160 T01060094 10128 20106 53005
Loading
Personal Weather Stations






























Interactive Weather Map
Tropical Storm Tracking
New forecast layout! Learn more

10-Day Weather Forecast

Advertisements
Track Severe Weather on mobile